Price, Canada
Current Conditions -  °F | °C
As of 10:00 PM on Saturday 20 Dec 2014 (Local Time) from CYYY Reporting Station
Light Snow Light Snow  
Wind Chill: 10°   Ceiling: 800
Heat Index: 19°   Visibility: 10mi
Dew Point: 16°   Wind: 7mph
Humidity: 86%   Direction: 170°S
Pressure: 30.39"   Gusts: NA
Location:  48.6°N, 68.13°W
Report Text: CYYY 210300Z 17006KT 10SM -SN BKN008 OVC015 M07/M09 A3039 RMK SF5SC3 SLP295
Loading
Personal Weather Stations






























Interactive Weather Map New forecast layout! Learn more

10-Day Weather Forecast

Advertisements
Track Severe Weather on mobile